Time;durP1;ratioP1;P1;durP2;ratioP2;P2;SDS_P1;SDS_P2;PMS_P1;PMS_P2;Temp;Humidity;BMP_temperature;BMP_pressure;BME280_temperature;BME280_humidity;BME280_pressure;Samples;Min_cycle;Max_cycle;Signal;HPM_P1;HPM_P2
2023/01/25 00:00:08;;;;;;;9.02;8.63;;;;;;;;;;5096335;28;20039;-68
2023/01/25 00:02:34;;;;;;;8.60;8.20;;;;;;;;;;5099261;28;20024;-69
2023/01/25 00:04:59;;;;;;;8.70;8.30;;;;;;;;;;5096720;28;20020;-70
2023/01/25 00:07:25;;;;;;;8.88;8.48;;;;;;;;;;5096095;28;20022;-69
2023/01/25 00:09:50;;;;;;;8.77;8.38;;;;;;;;;;5086501;28;20016;-69
2023/01/25 00:12:15;;;;;;;8.80;8.40;;;;;;;;;;5099206;28;20072;-69
2023/01/25 00:14:40;;;;;;;8.48;8.07;;;;;;;;;;5079563;28;20060;-70
2023/01/25 00:17:06;;;;;;;9.48;8.98;;;;;;;;;;5102337;28;20398;-69
2023/01/25 00:19:31;;;;;;;8.85;8.45;;;;;;;;;;5099748;28;20031;-69
2023/01/25 00:21:56;;;;;;;8.48;8.07;;;;;;;;;;5104109;28;20040;-69
2023/01/25 00:24:22;;;;;;;8.80;8.40;;;;;;;;;;5079145;28;20455;-69
2023/01/25 00:26:47;;;;;;;8.90;8.50;;;;;;;;;;5098730;28;20020;-69
2023/01/25 00:29:13;;;;;;;9.32;8.82;;;;;;;;;;5097248;28;20061;-68
2023/01/25 00:31:47;;;;;;;9.48;8.98;;;;;;;;;;5105714;28;20042;-68
2023/01/25 00:34:22;;;;;;;9.00;8.60;;;;;;;;;;5099691;28;20052;-68
2023/01/25 00:36:49;;;;;;;8.70;8.30;;;;;;;;;;5097322;28;20019;-68
2023/01/25 00:39:14;;;;;;;8.40;8.00;;;;;;;;;;5099797;28;20019;-68
2023/01/25 00:41:39;;;;;;;8.98;8.57;;;;;;;;;;5099599;28;20549;-68
2023/01/25 00:44:05;;;;;;;8.00;7.65;;;;;;;;;;5099310;28;20020;-70
2023/01/25 00:46:31;;;;;;;8.15;7.82;;;;;;;;;;5101182;28;20077;-68
2023/01/25 00:48:56;;;;;;;8.40;8.00;;;;;;;;;;5097187;28;20028;-70
2023/01/25 00:51:22;;;;;;;8.60;8.20;;;;;;;;;;5103171;28;20038;-68
2023/01/25 00:53:47;;;;;;;8.88;8.48;;;;;;;;;;5079910;28;20020;-68
2023/01/25 00:56:13;;;;;;;8.80;8.40;;;;;;;;;;5098486;28;20020;-69
2023/01/25 00:58:39;;;;;;;8.60;8.20;;;;;;;;;;5104476;28;20082;-69
2023/01/25 01:01:04;;;;;;;8.70;8.30;;;;;;;;;;5097746;28;20020;-68
2023/01/25 01:03:30;;;;;;;8.75;8.35;;;;;;;;;;5104420;28;20125;-70
2023/01/25 01:06:06;;;;;;;9.13;8.63;;;;;;;;;;5099449;28;20150;-68
2023/01/25 01:08:32;;;;;;;8.30;7.90;;;;;;;;;;5104682;28;20016;-69
2023/01/25 01:11:02;;;;;;;8.82;8.43;;;;;;;;;;5101696;28;20103;-68
2023/01/25 01:13:27;;;;;;;8.70;8.30;;;;;;;;;;5095909;28;20012;-68
2023/01/25 01:15:53;;;;;;;8.93;8.52;;;;;;;;;;5099355;28;20045;-67
2023/01/25 01:18:18;;;;;;;9.00;8.60;;;;;;;;;;5087100;28;20028;-69
2023/01/25 01:20:47;;;;;;;8.48;8.07;;;;;;;;;;5104013;28;20031;-67
2023/01/25 01:23:12;;;;;;;8.88;8.48;;;;;;;;;;5099754;28;20451;-68
2023/01/25 01:25:38;;;;;;;8.60;8.20;;;;;;;;;;5098703;28;20099;-69
2023/01/25 01:28:03;;;;;;;9.48;8.98;;;;;;;;;;5096770;28;20016;-69
2023/01/25 01:30:28;;;;;;;8.60;8.20;;;;;;;;;;5100071;28;20082;-68
2023/01/25 01:32:54;;;;;;;8.73;8.32;;;;;;;;;;5098693;28;20111;-68
2023/01/25 01:35:19;;;;;;;8.93;8.52;;;;;;;;;;5080094;28;20102;-68
2023/01/25 01:37:44;;;;;;;8.85;8.45;;;;;;;;;;5099136;28;20042;-68
2023/01/25 01:40:13;;;;;;;9.38;8.90;;;;;;;;;;5102547;28;20401;-68
2023/01/25 01:43:00;;;;;;;8.90;8.50;;;;;;;;;;5098756;28;20024;-68
2023/01/25 01:45:44;;;;;;;8.98;8.57;;;;;;;;;;5085092;28;20020;-68
2023/01/25 01:48:15;;;;;;;9.25;8.85;;;;;;;;;;5098347;28;20020;-68
2023/01/25 01:50:41;;;;;;;8.90;8.50;;;;;;;;;;5099846;28;20020;-68
2023/01/25 01:53:06;;;;;;;9.27;8.88;;;;;;;;;;5100456;28;20520;-68
2023/01/25 01:55:32;;;;;;;9.50;9.05;;;;;;;;;;5079997;28;20037;-68
2023/01/25 01:57:58;;;;;;;9.43;8.98;;;;;;;;;;5103198;28;20047;-69
2023/01/25 02:00:29;;;;;;;9.20;8.80;;;;;;;;;;5102257;28;20028;-68
2023/01/25 02:02:54;;;;;;;9.15;8.75;;;;;;;;;;5101889;28;20015;-68
2023/01/25 02:05:29;;;;;;;8.90;8.50;;;;;;;;;;5101082;28;20027;-69
2023/01/25 02:07:54;;;;;;;;;;;;;;;;;;5103152;28;20021;-68
2023/01/25 02:10:20;;;;;;;8.90;8.50;;;;;;;;;;5106100;28;19907;-68
2023/01/25 02:12:46;;;;;;;8.80;8.40;;;;;;;;;;5104438;28;20255;-67
2023/01/25 02:15:11;;;;;;;9.50;9.00;;;;;;;;;;5106562;28;20016;-69
2023/01/25 02:17:38;;;;;;;8.75;8.35;;;;;;;;;;5080899;28;20021;-68
2023/01/25 02:20:16;;;;;;;9.00;8.60;;;;;;;;;;5099229;28;20130;-68
2023/01/25 02:22:41;;;;;;;8.88;8.48;;;;;;;;;;5102533;28;20095;-68
2023/01/25 02:25:08;;;;;;;8.55;8.15;;;;;;;;;;5102709;28;20154;-68
2023/01/25 02:27:36;;;;;;;8.48;8.07;;;;;;;;;;5103293;28;20576;-69
2023/01/25 02:30:02;;;;;;;8.45;8.05;;;;;;;;;;5104641;28;20024;-68
2023/01/25 02:32:27;;;;;;;8.45;8.05;;;;;;;;;;5101923;28;20027;-69
2023/01/25 02:34:53;;;;;;;8.55;8.15;;;;;;;;;;5104183;28;20104;-68
2023/01/25 02:37:18;;;;;;;9.13;8.70;;;;;;;;;;5100989;28;20020;-68
2023/01/25 02:39:43;;;;;;;8.88;8.48;;;;;;;;;;5090712;28;20048;-68
2023/01/25 02:42:09;;;;;;;9.20;8.80;;;;;;;;;;5101793;28;20016;-68
2023/01/25 02:44:34;;;;;;;9.18;8.77;;;;;;;;;;5103998;28;20024;-68
2023/01/25 02:46:59;;;;;;;9.02;8.63;;;;;;;;;;5106013;28;20012;-68
2023/01/25 02:49:25;;;;;;;9.15;8.75;;;;;;;;;;5103752;28;20020;-68
2023/01/25 02:51:54;;;;;;;8.95;8.55;;;;;;;;;;5102586;28;20123;-69
2023/01/25 02:54:20;;;;;;;9.60;9.10;;;;;;;;;;5105902;28;20497;-68
2023/01/25 02:56:46;;;;;;;9.23;8.82;;;;;;;;;;5103738;28;20488;-68
2023/01/25 02:59:12;;;;;;;9.35;8.90;;;;;;;;;;5086497;28;20020;-68
2023/01/25 03:01:39;;;;;;;8.95;8.55;;;;;;;;;;5101486;28;20008;-68
2023/01/25 03:04:04;;;;;;;8.90;8.50;;;;;;;;;;5100873;28;20141;-68
2023/01/25 03:06:30;;;;;;;9.20;8.77;;;;;;;;;;5100265;28;20098;-68
2023/01/25 03:08:55;;;;;;;8.57;8.18;;;;;;;;;;5104907;28;20024;-67
2023/01/25 03:11:21;;;;;;;9.02;8.63;;;;;;;;;;5103017;28;20019;-68
2023/01/25 03:13:46;;;;;;;8.95;8.55;;;;;;;;;;5102098;28;20086;-67
2023/01/25 03:16:12;;;;;;;9.00;8.60;;;;;;;;;;5105419;28;20016;-68
2023/01/25 03:18:38;;;;;;;10.20;9.63;;;;;;;;;;5105003;28;20031;-68
2023/01/25 03:21:07;;;;;;;8.77;8.38;;;;;;;;;;5101811;28;20023;-68
2023/01/25 03:23:32;;;;;;;8.50;8.10;;;;;;;;;;5103042;28;20037;-68
2023/01/25 03:26:11;;;;;;;8.75;8.35;;;;;;;;;;5100818;28;20023;-69
2023/01/25 03:28:37;;;;;;;8.73;8.32;;;;;;;;;;5099490;28;20050;-68
2023/01/25 03:31:03;;;;;;;8.63;8.23;;;;;;;;;;5086788;28;20023;-68
2023/01/25 03:33:28;;;;;;;8.50;8.10;;;;;;;;;;5101557;28;20020;-68
2023/01/25 03:35:54;;;;;;;8.70;8.30;;;;;;;;;;5101719;28;20102;-69
2023/01/25 03:38:20;;;;;;;8.35;7.95;;;;;;;;;;5103055;28;20387;-69
2023/01/25 03:40:46;;;;;;;8.88;8.48;;;;;;;;;;5103424;28;20023;-69
2023/01/25 03:43:11;;;;;;;8.57;8.18;;;;;;;;;;5097015;28;20069;-69
2023/01/25 03:45:36;;;;;;;8.80;8.40;;;;;;;;;;5082374;28;20506;-67
2023/01/25 03:48:02;;;;;;;8.65;8.25;;;;;;;;;;5100713;28;20510;-69
2023/01/25 03:50:27;;;;;;;9.23;8.77;;;;;;;;;;5098075;28;20103;-69
2023/01/25 03:53:06;;;;;;;8.90;8.50;;;;;;;;;;5102622;28;20016;-69
2023/01/25 03:55:32;;;;;;;8.65;8.25;;;;;;;;;;5105546;28;20112;-69
2023/01/25 03:57:57;;;;;;;8.80;8.40;;;;;;;;;;5103884;28;20158;-68
2023/01/25 04:00:22;;;;;;;8.93;8.52;;;;;;;;;;5098952;28;20060;-69
2023/01/25 04:02:48;;;;;;;9.00;8.60;;;;;;;;;;5099075;28;20502;-69
2023/01/25 04:05:13;;;;;;;9.07;8.63;;;;;;;;;;5094212;28;20028;-68
2023/01/25 04:07:38;;;;;;;9.00;8.60;;;;;;;;;;5101464;28;20049;-68
2023/01/25 04:10:04;;;;;;;8.85;8.45;;;;;;;;;;5100147;28;20012;-68
2023/01/25 04:12:29;;;;;;;8.77;8.38;;;;;;;;;;5096336;28;20431;-68
2023/01/25 04:14:55;;;;;;;8.65;8.25;;;;;;;;;;5081897;28;20026;-69
2023/01/25 04:17:20;;;;;;;9.38;8.88;;;;;;;;;;5095688;28;20030;-69
2023/01/25 04:19:45;;;;;;;9.05;8.63;;;;;;;;;;5097466;28;20445;-69
2023/01/25 04:22:11;;;;;;;8.77;8.38;;;;;;;;;;5099371;28;20051;-68
2023/01/25 04:24:37;;;;;;;8.60;8.20;;;;;;;;;;5096598;28;20114;-68
2023/01/25 04:27:02;;;;;;;8.52;8.13;;;;;;;;;;5100324;28;20095;-68
2023/01/25 04:29:28;;;;;;;8.85;8.45;;;;;;;;;;5105549;28;20015;-69
2023/01/25 04:31:53;;;;;;;9.18;8.73;;;;;;;;;;5106371;28;20028;-69
2023/01/25 04:34:18;;;;;;;8.70;8.30;;;;;;;;;;5100376;28;20383;-68
2023/01/25 04:36:44;;;;;;;8.60;8.20;;;;;;;;;;5102208;28;20012;-69
2023/01/25 04:39:09;;;;;;;9.35;8.85;;;;;;;;;;5092450;28;20464;-68
2023/01/25 04:41:34;;;;;;;8.90;8.50;;;;;;;;;;5102837;28;20023;-69
2023/01/25 04:43:59;;;;;;;9.20;8.70;;;;;;;;;;5100979;28;20028;-70
2023/01/25 04:46:25;;;;;;;8.63;8.23;;;;;;;;;;5099245;28;20046;-69
2023/01/25 04:48:50;;;;;;;9.20;8.70;;;;;;;;;;5100600;28;20015;-69
2023/01/25 04:51:15;;;;;;;9.35;8.85;;;;;;;;;;5101053;28;20023;-69
2023/01/25 04:53:40;;;;;;;8.35;7.95;;;;;;;;;;5097772;28;20467;-67
2023/01/25 04:56:06;;;;;;;8.90;8.50;;;;;;;;;;5100126;28;20379;-69
2023/01/25 04:58:31;;;;;;;8.98;8.57;;;;;;;;;;5105103;28;20495;-69
2023/01/25 05:01:01;;;;;;;9.40;8.90;;;;;;;;;;5100300;28;20055;-68
2023/01/25 05:03:27;;;;;;;9.55;9.05;;;;;;;;;;5098705;28;20022;-69
2023/01/25 05:05:52;;;;;;;9.25;8.77;;;;;;;;;;5096829;28;20394;-69
2023/01/25 05:08:17;;;;;;;9.13;8.68;;;;;;;;;;5098371;28;20031;-69
2023/01/25 05:10:43;;;;;;;8.75;8.35;;;;;;;;;;5096565;28;20091;-69
2023/01/25 05:13:08;;;;;;;9.57;9.07;;;;;;;;;;5102682;28;20024;-69
2023/01/25 05:15:34;;;;;;;8.38;7.97;;;;;;;;;;5103973;28;20051;-69
2023/01/25 05:17:59;;;;;;;9.25;8.75;;;;;;;;;;5098212;28;20081;-69
2023/01/25 05:20:24;;;;;;;9.90;9.38;;;;;;;;;;5091479;28;20059;-69
2023/01/25 05:22:49;;;;;;;9.23;8.73;;;;;;;;;;5096233;28;20030;-69
2023/01/25 05:27:59;;;;;;;8.90;8.50;;;;;;;;;;5094199;28;20080;-69
2023/01/25 05:30:24;;;;;;;9.77;9.27;;;;;;;;;;5077796;28;20475;-69
2023/01/25 05:32:49;;;;;;;8.65;8.25;;;;;;;;;;5099523;28;20028;-69
2023/01/25 05:35:15;;;;;;;9.48;8.98;;;;;;;;;;5101221;28;20028;-69
2023/01/25 05:37:40;;;;;;;9.30;8.80;;;;;;;;;;5102021;28;20099;-69
2023/01/25 05:40:06;;;;;;;10.48;9.88;;;;;;;;;;5105144;28;20475;-69
2023/01/25 05:42:31;;;;;;;9.00;8.60;;;;;;;;;;5101801;28;20050;-69
2023/01/25 05:44:56;;;;;;;8.68;8.27;;;;;;;;;;5102213;28;20016;-68
2023/01/25 05:47:22;;;;;;;10.60;10.00;;;;;;;;;;5107478;28;20073;-68
2023/01/25 05:49:47;;;;;;;9.85;9.35;;;;;;;;;;5104788;28;20023;-69
2023/01/25 05:52:13;;;;;;;9.82;9.32;;;;;;;;;;5105926;28;20020;-69
2023/01/25 05:54:38;;;;;;;9.70;9.20;;;;;;;;;;5109669;28;20471;-69
2023/01/25 05:57:04;;;;;;;9.40;8.90;;;;;;;;;;5107706;28;20153;-70
2023/01/25 05:59:29;;;;;;;10.23;9.63;;;;;;;;;;5080694;28;20402;-66
2023/01/25 06:01:54;;;;;;;9.90;9.35;;;;;;;;;;5092350;28;20043;-67
2023/01/25 06:04:20;;;;;;;8.80;8.40;;;;;;;;;;5101802;28;20054;-67
2023/01/25 06:06:45;;;;;;;8.80;8.40;;;;;;;;;;5102551;28;20011;-68
2023/01/25 06:09:11;;;;;;;9.73;9.23;;;;;;;;;;5103616;28;20361;-67
2023/01/25 06:11:36;;;;;;;8.70;8.30;;;;;;;;;;5100447;28;20066;-67
2023/01/25 06:14:01;;;;;;;8.75;8.35;;;;;;;;;;5101966;28;20020;-68
2023/01/25 06:16:27;;;;;;;8.70;8.30;;;;;;;;;;5104009;28;20028;-67
2023/01/25 06:18:52;;;;;;;8.73;8.32;;;;;;;;;;5104890;28;20020;-66
2023/01/25 06:21:17;;;;;;;9.18;8.68;;;;;;;;;;5101845;28;20048;-69
2023/01/25 06:23:43;;;;;;;8.77;8.38;;;;;;;;;;5096282;28;20034;-71
2023/01/25 06:26:10;;;;;;;8.57;8.18;;;;;;;;;;5099867;28;20027;-71
2023/01/25 06:28:36;;;;;;;9.13;8.65;;;;;;;;;;5103413;28;20019;-71
2023/01/25 06:31:05;;;;;;;9.25;8.75;;;;;;;;;;5106674;28;20019;-72
2023/01/25 06:33:31;;;;;;;9.20;8.70;;;;;;;;;;5101629;28;20020;-71
2023/01/25 06:36:00;;;;;;;8.93;8.52;;;;;;;;;;5098214;28;20027;-69
2023/01/25 06:38:26;;;;;;;9.80;9.30;;;;;;;;;;5076342;28;20027;-71
2023/01/25 06:40:51;;;;;;;8.75;8.35;;;;;;;;;;5104087;28;20483;-71
2023/01/25 06:43:16;;;;;;;11.15;10.45;;;;;;;;;;5102989;28;20023;-72
2023/01/25 06:45:42;;;;;;;9.73;9.23;;;;;;;;;;5101032;28;20107;-71
2023/01/25 06:48:07;;;;;;;9.52;9.02;;;;;;;;;;5102378;28;20022;-71
2023/01/25 06:50:32;;;;;;;8.63;8.23;;;;;;;;;;5100742;28;20383;-70
2023/01/25 06:52:57;;;;;;;8.82;8.43;;;;;;;;;;5104256;28;20443;-73
2023/01/25 06:55:23;;;;;;;10.23;9.63;;;;;;;;;;5085540;28;20024;-72
2023/01/25 06:57:48;;;;;;;9.27;8.80;;;;;;;;;;5074165;28;20116;-67
2023/01/25 07:00:17;;;;;;;9.43;8.93;;;;;;;;;;5088908;28;20039;-68
2023/01/25 07:02:42;;;;;;;8.75;8.35;;;;;;;;;;5091068;28;20112;-66
2023/01/25 07:05:08;;;;;;;9.35;8.85;;;;;;;;;;5099122;28;20103;-67
2023/01/25 07:07:33;;;;;;;9.18;8.68;;;;;;;;;;5102968;28;20016;-66
2023/01/25 07:10:00;;;;;;;10.13;9.52;;;;;;;;;;5103485;28;20019;-67
2023/01/25 07:12:27;;;;;;;8.98;8.57;;;;;;;;;;5103895;28;20023;-71
2023/01/25 07:14:52;;;;;;;8.65;8.25;;;;;;;;;;5077905;28;20106;-72
2023/01/25 07:17:18;;;;;;;9.60;9.10;;;;;;;;;;5103096;28;20107;-72
2023/01/25 07:19:43;;;;;;;10.18;9.60;;;;;;;;;;5092488;28;20351;-72
2023/01/25 07:22:08;;;;;;;10.40;9.80;;;;;;;;;;5101443;28;20028;-70
2023/01/25 07:24:34;;;;;;;9.43;8.93;;;;;;;;;;5079798;28;20416;-71
2023/01/25 07:27:00;;;;;;;9.43;8.93;;;;;;;;;;5093705;28;20551;-68
2023/01/25 07:29:26;;;;;;;11.32;10.60;;;;;;;;;;5086268;28;20051;-68
2023/01/25 07:31:51;;;;;;;9.95;9.43;;;;;;;;;;5093554;28;20020;-67
2023/01/25 07:34:17;;;;;;;9.05;8.65;;;;;;;;;;5093111;28;20383;-67
2023/01/25 07:36:42;;;;;;;9.85;9.32;;;;;;;;;;5086381;28;20029;-72
2023/01/25 07:39:11;;;;;;;9.05;8.60;;;;;;;;;;5093815;28;20046;-68
2023/01/25 07:41:36;;;;;;;9.20;8.73;;;;;;;;;;5091873;28;20061;-68
2023/01/25 07:44:02;;;;;;;9.18;8.68;;;;;;;;;;5095782;28;20036;-68
2023/01/25 07:46:27;;;;;;;10.05;9.45;;;;;;;;;;5076521;28;20016;-66
2023/01/25 07:48:53;;;;;;;10.50;9.90;;;;;;;;;;5078958;28;20016;-67
2023/01/25 07:51:22;;;;;;;9.30;8.80;;;;;;;;;;5084439;28;20787;-66
2023/01/25 07:54:14;;;;;;;9.32;8.82;;;;;;;;;;5097508;28;20052;-65
2023/01/25 07:56:39;;;;;;;8.80;8.40;;;;;;;;;;5086980;28;20036;-64
2023/01/25 07:59:07;;;;;;;9.80;9.30;;;;;;;;;;5097089;28;20066;-66
2023/01/25 08:01:33;;;;;;;8.88;8.48;;;;;;;;;;5097358;28;20094;-66
2023/01/25 08:03:58;;;;;;;10.25;9.65;;;;;;;;;;5103473;28;20028;-67
2023/01/25 08:06:29;;;;;;;9.52;9.02;;;;;;;;;;5100670;28;20023;-65
2023/01/25 08:08:55;;;;;;;9.38;8.88;;;;;;;;;;5096317;28;20023;-64
2023/01/25 08:11:21;;;;;;;9.35;8.85;;;;;;;;;;5093175;28;20016;-64
2023/01/25 08:13:48;;;;;;;8.93;8.52;;;;;;;;;;5095966;28;20020;-65
2023/01/25 08:16:17;;;;;;;9.55;9.05;;;;;;;;;;5093442;28;20486;-63
2023/01/25 08:18:42;;;;;;;8.60;8.20;;;;;;;;;;5096128;28;20111;-66
2023/01/25 08:21:08;;;;;;;8.65;8.25;;;;;;;;;;5095376;28;20511;-66
2023/01/25 08:23:34;;;;;;;8.70;8.30;;;;;;;;;;5095263;28;20019;-66
2023/01/25 08:26:06;;;;;;;8.52;8.13;;;;;;;;;;5098872;28;20055;-66
2023/01/25 08:28:31;;;;;;;8.50;8.10;;;;;;;;;;5093751;28;20027;-66
2023/01/25 08:31:17;;;;;;;9.65;9.15;;;;;;;;;;5101256;28;20063;-66
2023/01/25 08:33:44;;;;;;;8.80;8.40;;;;;;;;;;5096842;28;20068;-66
2023/01/25 08:36:10;;;;;;;9.63;9.13;;;;;;;;;;5075166;28;20459;-65
2023/01/25 08:38:36;;;;;;;8.93;8.52;;;;;;;;;;5096892;28;20091;-66
2023/01/25 08:41:05;;;;;;;9.68;9.18;;;;;;;;;;5098902;28;20453;-66
2023/01/25 08:43:30;;;;;;;8.93;8.52;;;;;;;;;;5092358;28;20059;-67
2023/01/25 08:45:56;;;;;;;8.82;8.43;;;;;;;;;;5092837;28;20100;-67
2023/01/25 08:48:21;;;;;;;10.23;9.63;;;;;;;;;;5088520;28;20161;-65
2023/01/25 08:50:47;;;;;;;8.77;8.38;;;;;;;;;;5091475;28;20098;-64
2023/01/25 08:53:12;;;;;;;9.48;8.98;;;;;;;;;;5096118;28;20012;-65
2023/01/25 08:55:39;;;;;;;9.32;8.82;;;;;;;;;;5100710;28;20016;-65
2023/01/25 08:58:04;;;;;;;9.10;8.65;;;;;;;;;;5098618;28;20048;-65
2023/01/25 09:00:29;;;;;;;9.02;8.63;;;;;;;;;;5099881;28;20066;-66
2023/01/25 09:02:55;;;;;;;8.80;8.40;;;;;;;;;;5102863;28;20359;-64
2023/01/25 09:05:20;;;;;;;9.82;9.30;;;;;;;;;;5095973;28;20020;-65
2023/01/25 09:07:45;;;;;;;10.13;9.55;;;;;;;;;;5083463;28;20016;-67
2023/01/25 09:10:11;;;;;;;9.48;8.98;;;;;;;;;;5103108;28;20024;-67
2023/01/25 09:12:36;;;;;;;9.65;9.15;;;;;;;;;;5107121;28;20019;-66
2023/01/25 09:15:02;;;;;;;8.73;8.32;;;;;;;;;;5102621;28;20051;-65
2023/01/25 09:17:27;;;;;;;8.68;8.27;;;;;;;;;;5100528;28;20034;-65
2023/01/25 09:19:52;;;;;;;9.65;9.15;;;;;;;;;;5100999;28;20024;-65
2023/01/25 09:22:18;;;;;;;9.68;9.18;;;;;;;;;;5100651;28;20020;-66
2023/01/25 09:24:43;;;;;;;9.05;8.65;;;;;;;;;;5095096;28;20103;-66
2023/01/25 09:27:09;;;;;;;9.40;8.90;;;;;;;;;;5101516;28;20016;-66
2023/01/25 09:29:34;;;;;;;10.05;9.48;;;;;;;;;;5100592;28;20146;-66
2023/01/25 09:32:00;;;;;;;8.75;8.35;;;;;;;;;;5104626;28;20068;-65
2023/01/25 09:34:25;;;;;;;9.20;8.70;;;;;;;;;;5097749;28;20142;-67
2023/01/25 09:36:50;;;;;;;9.38;8.88;;;;;;;;;;5102708;28;20461;-65
2023/01/25 09:39:15;;;;;;;9.30;8.80;;;;;;;;;;5103334;28;20019;-67
2023/01/25 09:41:41;;;;;;;10.00;9.45;;;;;;;;;;5095080;28;20107;-66
2023/01/25 09:44:18;;;;;;;9.38;8.88;;;;;;;;;;5102337;28;20024;-64
2023/01/25 09:46:48;;;;;;;8.63;8.23;;;;;;;;;;5098298;28;20055;-65
2023/01/25 09:49:14;;;;;;;9.63;9.13;;;;;;;;;;5093812;28;20020;-64
2023/01/25 09:51:53;;;;;;;9.30;8.80;;;;;;;;;;5095308;28;20356;-65
2023/01/25 09:54:19;;;;;;;9.60;9.10;;;;;;;;;;5101826;28;20017;-66
2023/01/25 09:56:47;;;;;;;8.93;8.52;;;;;;;;;;5097052;28;20723;-66
2023/01/25 09:59:15;;;;;;;9.25;8.82;;;;;;;;;;5099708;28;20662;-65
2023/01/25 10:01:47;;;;;;;9.25;8.75;;;;;;;;;;5103080;28;20155;-68
2023/01/25 10:04:13;;;;;;;9.40;8.90;;;;;;;;;;5094067;28;20043;-67
2023/01/25 10:06:39;;;;;;;9.50;9.00;;;;;;;;;;5083760;28;20027;-66
2023/01/25 10:09:29;;;;;;;9.73;9.23;;;;;;;;;;5097463;28;20086;-66
2023/01/25 10:11:56;;;;;;;8.40;8.00;;;;;;;;;;5094042;28;20028;-65
2023/01/25 10:14:21;;;;;;;8.70;8.30;;;;;;;;;;5100133;28;20016;-65
2023/01/25 10:16:46;;;;;;;9.45;8.95;;;;;;;;;;5099988;28;20103;-65
2023/01/25 10:19:17;;;;;;;9.20;8.75;;;;;;;;;;5101819;28;20059;-67
2023/01/25 10:21:44;;;;;;;9.18;8.70;;;;;;;;;;5098465;28;20051;-67
2023/01/25 10:24:15;;;;;;;9.20;8.70;;;;;;;;;;5087790;28;20028;-66
2023/01/25 10:26:43;;;;;;;9.23;8.75;;;;;;;;;;5097732;28;20077;-71
2023/01/25 10:29:14;;;;;;;8.77;8.38;;;;;;;;;;5076496;28;20111;-66
2023/01/25 10:32:00;;;;;;;9.35;8.85;;;;;;;;;;5089842;28;20027;-68
2023/01/25 10:34:32;;;;;;;8.85;8.45;;;;;;;;;;5093369;28;20151;-65
2023/01/25 10:37:01;;;;;;;9.75;9.25;;;;;;;;;;5090485;28;20035;-69
2023/01/25 10:39:26;;;;;;;9.45;8.95;;;;;;;;;;5098234;28;20149;-65
2023/01/25 10:41:54;;;;;;;9.27;8.80;;;;;;;;;;5103013;28;20045;-64
2023/01/25 10:44:27;;;;;;;10.65;10.02;;;;;;;;;;5089912;28;20078;-66
2023/01/25 10:47:11;;;;;;;11.48;10.77;;;;;;;;;;5076156;28;20036;-66
2023/01/25 10:49:48;;;;;;;9.30;8.82;;;;;;;;;;5092928;28;20016;-64
2023/01/25 10:52:16;;;;;;;9.80;9.30;;;;;;;;;;5098653;28;20035;-65
2023/01/25 10:54:41;;;;;;;9.95;9.45;;;;;;;;;;5096977;28;20035;-65
2023/01/25 10:57:07;;;;;;;9.23;8.77;;;;;;;;;;5094038;28;20036;-65
2023/01/25 10:59:34;;;;;;;9.68;9.18;;;;;;;;;;5094978;28;20016;-66
2023/01/25 11:02:35;;;;;;;9.50;9.00;;;;;;;;;;5079837;28;20479;-66
2023/01/25 11:05:19;;;;;;;10.30;9.70;;;;;;;;;;5008215;28;20026;-66
2023/01/25 11:07:45;;;;;;;9.52;9.02;;;;;;;;;;5089443;28;20077;-66
2023/01/25 11:10:22;;;;;;;9.75;9.25;;;;;;;;;;5099913;28;20479;-65
2023/01/25 11:12:48;;;;;;;8.98;8.57;;;;;;;;;;5099403;28;20019;-65
2023/01/25 11:15:24;;;;;;;9.68;9.18;;;;;;;;;;5093827;28;20066;-66
2023/01/25 11:18:03;;;;;;;9.75;9.25;;;;;;;;;;5098633;28;20031;-66
2023/01/25 11:20:28;;;;;;;9.30;8.82;;;;;;;;;;5077657;28;20625;-65
2023/01/25 11:22:55;;;;;;;12.27;11.48;;;;;;;;;;5095040;28;20172;-66
2023/01/25 11:25:26;;;;;;;9.70;9.20;;;;;;;;;;5096348;28;20047;-65
2023/01/25 11:28:08;;;;;;;9.60;9.10;;;;;;;;;;5096307;28;20062;-66
2023/01/25 11:30:34;;;;;;;9.70;9.20;;;;;;;;;;5097567;28;20268;-65
2023/01/25 11:32:59;;;;;;;9.27;8.82;;;;;;;;;;5102581;28;20565;-65
2023/01/25 11:35:30;;;;;;;10.27;9.68;;;;;;;;;;5099966;28;20031;-66
2023/01/25 11:38:12;;;;;;;10.00;9.50;;;;;;;;;;5097808;28;20031;-66
2023/01/25 11:40:45;;;;;;;9.88;9.38;;;;;;;;;;5097382;28;20020;-66
2023/01/25 11:43:26;;;;;;;9.70;9.20;;;;;;;;;;5104830;28;20016;-67
2023/01/25 11:46:30;;;;;;;9.40;8.90;;;;;;;;;;5093708;28;20109;-68
2023/01/25 11:49:10;;;;;;;9.27;8.77;;;;;;;;;;4997219;28;20055;-64
2023/01/25 11:51:51;;;;;;;9.38;8.88;;;;;;;;;;4993184;28;20018;-64
2023/01/25 11:54:22;;;;;;;9.98;9.48;;;;;;;;;;5055648;28;20040;-65
2023/01/25 11:56:54;;;;;;;9.30;8.80;;;;;;;;;;5090444;28;20039;-64
2023/01/25 11:59:22;;;;;;;9.73;9.23;;;;;;;;;;5091551;28;20153;-64
2023/01/25 12:01:56;;;;;;;11.82;11.07;;;;;;;;;;5086724;28;20048;-64
2023/01/25 12:04:41;;;;;;;11.23;10.52;;;;;;;;;;5077973;28;20063;-65
2023/01/25 12:07:17;;;;;;;10.65;10.05;;;;;;;;;;5090751;28;20019;-64
2023/01/25 12:09:55;;;;;;;9.55;9.05;;;;;;;;;;5094213;28;20024;-65
2023/01/25 12:12:40;;;;;;;9.77;9.27;;;;;;;;;;5088638;28;20506;-64
2023/01/25 12:15:24;;;;;;;9.45;8.95;;;;;;;;;;5084311;28;20070;-65
2023/01/25 12:17:55;;;;;;;9.43;8.93;;;;;;;;;;5094990;28;20056;-66
2023/01/25 12:20:30;;;;;;;9.20;8.70;;;;;;;;;;5094762;28;20517;-66
2023/01/25 12:23:13;;;;;;;9.45;8.95;;;;;;;;;;5090651;28;20084;-66
2023/01/25 12:25:42;;;;;;;9.13;8.73;;;;;;;;;;5093391;28;20026;-66
2023/01/25 12:28:19;;;;;;;10.05;9.50;;;;;;;;;;5100468;28;20090;-65
2023/01/25 12:30:45;;;;;;;9.60;9.10;;;;;;;;;;5090761;28;20024;-65
2023/01/25 12:33:19;;;;;;;9.68;9.18;;;;;;;;;;5090345;28;20541;-65
2023/01/25 12:35:48;;;;;;;9.82;9.32;;;;;;;;;;5093900;28;20053;-65
2023/01/25 12:38:16;;;;;;;9.80;9.30;;;;;;;;;;5087007;28;20438;-66
2023/01/25 12:40:44;;;;;;;9.73;9.23;;;;;;;;;;5091474;28;20019;-66
2023/01/25 12:43:15;;;;;;;9.75;9.25;;;;;;;;;;5085582;28;20012;-66
2023/01/25 12:45:44;;;;;;;9.95;9.45;;;;;;;;;;5088041;28;20035;-65
2023/01/25 12:48:21;;;;;;;9.68;9.18;;;;;;;;;;5092937;28;20022;-70
2023/01/25 12:50:53;;;;;;;8.80;8.40;;;;;;;;;;5095234;28;20050;-64
2023/01/25 12:53:20;;;;;;;9.43;8.93;;;;;;;;;;5090184;28;20020;-66
2023/01/25 12:55:46;;;;;;;9.40;8.90;;;;;;;;;;5076563;28;20483;-66
2023/01/25 12:58:18;;;;;;;9.07;8.68;;;;;;;;;;5089081;28;20457;-65
2023/01/25 13:00:56;;;;;;;8.75;8.35;;;;;;;;;;5078156;28;20033;-64
2023/01/25 13:03:37;;;;;;;9.30;8.80;;;;;;;;;;5087371;28;20094;-65
2023/01/25 13:06:17;;;;;;;9.45;8.95;;;;;;;;;;5091213;28;20027;-66
2023/01/25 13:09:08;;;;;;;9.00;8.60;;;;;;;;;;5091871;28;20020;-67
2023/01/25 13:11:38;;;;;;;9.32;8.82;;;;;;;;;;5095683;28;20012;-65
2023/01/25 13:14:22;;;;;;;10.00;9.40;;;;;;;;;;5088850;28;20406;-64
2023/01/25 13:16:50;;;;;;;9.93;9.37;;;;;;;;;;5077856;28;20165;-65
2023/01/25 13:19:37;;;;;;;8.75;8.35;;;;;;;;;;5090657;28;20051;-64
2023/01/25 13:22:02;;;;;;;9.30;8.80;;;;;;;;;;5088238;28;20043;-64
2023/01/25 13:24:29;;;;;;;9.82;9.25;;;;;;;;;;5091706;28;20028;-64
2023/01/25 13:26:54;;;;;;;9.10;8.65;;;;;;;;;;5099044;28;20547;-66
2023/01/25 13:29:31;;;;;;;8.80;8.40;;;;;;;;;;5093509;28;20019;-66
2023/01/25 13:31:57;;;;;;;10.02;9.50;;;;;;;;;;5091137;28;20472;-66
2023/01/25 13:34:34;;;;;;;9.35;8.85;;;;;;;;;;5094757;28;20291;-64
2023/01/25 13:37:20;;;;;;;9.05;8.63;;;;;;;;;;5094167;28;20472;-64
2023/01/25 13:39:49;;;;;;;10.85;10.15;;;;;;;;;;5090350;28;20032;-65
2023/01/25 13:42:15;;;;;;;9.70;9.20;;;;;;;;;;5074461;28;20023;-65
2023/01/25 13:44:44;;;;;;;9.60;9.10;;;;;;;;;;5082295;28;20021;-64
2023/01/25 13:47:11;;;;;;;9.82;9.32;;;;;;;;;;5091599;28;20027;-63
2023/01/25 13:49:39;;;;;;;9.68;9.18;;;;;;;;;;5093610;28;20047;-65
2023/01/25 13:52:05;;;;;;;10.10;9.55;;;;;;;;;;5097376;28;20027;-68
2023/01/25 13:54:30;;;;;;;10.15;9.60;;;;;;;;;;5098750;28;20387;-64
2023/01/25 13:57:02;;;;;;;9.07;8.68;;;;;;;;;;5096145;28;20067;-66
2023/01/25 13:59:28;;;;;;;9.63;9.13;;;;;;;;;;5097498;28;20020;-65
2023/01/25 14:01:53;;;;;;;9.65;9.15;;;;;;;;;;5090627;28;20085;-64
2023/01/25 14:04:19;;;;;;;8.65;8.25;;;;;;;;;;5093829;28;20020;-64
2023/01/25 14:06:44;;;;;;;9.45;8.95;;;;;;;;;;5094158;28;20020;-65
2023/01/25 14:09:14;;;;;;;9.20;8.75;;;;;;;;;;5097640;28;20098;-65
2023/01/25 14:11:53;;;;;;;9.65;9.15;;;;;;;;;;5099534;28;20054;-65
2023/01/25 14:14:27;;;;;;;9.50;9.00;;;;;;;;;;5091888;28;20027;-66
2023/01/25 14:17:07;;;;;;;8.82;8.43;;;;;;;;;;5087864;28;20016;-65
2023/01/25 14:19:40;;;;;;;10.00;9.45;;;;;;;;;;5088288;28;20332;-66
2023/01/25 14:22:25;;;;;;;9.27;8.77;;;;;;;;;;5089842;28;20027;-64
2023/01/25 14:25:01;;;;;;;10.68;10.07;;;;;;;;;;5096299;28;20430;-64
2023/01/25 14:27:26;;;;;;;9.75;9.25;;;;;;;;;;5097647;28;20104;-65
2023/01/25 14:29:51;;;;;;;9.65;9.15;;;;;;;;;;5069637;28;20020;-67
2023/01/25 14:32:19;;;;;;;10.05;9.45;;;;;;;;;;5090912;28;20050;-64
2023/01/25 14:34:44;;;;;;;9.35;8.85;;;;;;;;;;5092950;28;20039;-66
2023/01/25 14:37:15;;;;;;;9.95;9.38;;;;;;;;;;5093334;28;20390;-66
2023/01/25 14:39:40;;;;;;;9.55;9.05;;;;;;;;;;5100566;28;20531;-65
2023/01/25 14:42:06;;;;;;;9.82;9.32;;;;;;;;;;5095107;28;20020;-66
2023/01/25 14:44:32;;;;;;;9.57;9.07;;;;;;;;;;5090841;28;20364;-66
2023/01/25 14:47:16;;;;;;;8.57;8.18;;;;;;;;;;5095766;28;20046;-66
2023/01/25 14:49:41;;;;;;;9.32;8.82;;;;;;;;;;5095974;28;20026;-64